Forside
METAR-TAF:

METAR-TAF

Lufthavne :

Vinton Veterans Memorial Airpark

Vinton, Iowa, USA

Breddekreds: 42-13-07N, længdekreds: 092-01-33W, højde: 258 m

Aktuelle vejr

Denne rapport blev lavet for 22 minutter siden, kl. 02:15 UTC
Vind 5 kt fra sydvest
Temperatur 25°C
Fugtighed 65%
Tryk 1011 hPa
Sigt: 16.1 km
Spredte skyer i en højde af 6000 ft

METAR: KVTI 250215Z AUTO 23005KT 10SM SCT060 25/18 A2984 RMK AO2 T02480184

Tid: 21:37 (02:37 UTC)


TAF: fraværende

Vejrobservationer og prognoser fra mere end 4000 lufthavne (METAR og TAF).

De gule og røde prikker repræsenterer de meteorologiske stationer.

Flyt musen over at se navnet på stationen.

Så klik over at se vejr observationer og prognoser.

At skifte det kort: Klik på de grønne knapper med et sort kors for at zoome ind; på den grønne knap med en bindestreg for at zoome ud; eller på de grønne pile for tilstødende kort.


METAR-TAF: